createdAt,value
2023-05-09T00:02:46.170Z,100786.45
2023-05-09T00:05:23.679Z,100787.89
2023-05-09T00:08:01.105Z,100787.05
2023-05-09T00:10:32.519Z,100786.20
2023-05-09T00:13:14.284Z,100782.92
2023-05-09T00:16:29.020Z,100777.57
2023-05-09T00:19:00.625Z,100777.09
2023-05-09T00:21:41.090Z,100772.53
2023-05-09T00:24:12.270Z,100775.36
2023-05-09T00:26:43.688Z,100770.89
2023-05-09T00:29:12.053Z,100767.96
2023-05-09T00:32:10.200Z,100768.20
2023-05-09T00:34:46.958Z,100768.29
2023-05-09T00:37:18.386Z,100767.52
2023-05-09T00:39:49.785Z,100772.10
2023-05-09T00:42:40.799Z,100765.66
2023-05-09T00:45:30.076Z,100764.50
2023-05-09T00:48:13.182Z,100763.17
2023-05-09T00:51:00.657Z,100760.59
2023-05-09T00:53:35.372Z,100760.60
2023-05-09T00:56:27.020Z,100757.27
2023-05-09T00:58:58.243Z,100758.00
2023-05-09T01:01:50.700Z,100754.88
2023-05-09T01:04:25.994Z,100754.36
2023-05-09T01:07:14.647Z,100755.30
2023-05-09T01:10:17.085Z,100752.89
2023-05-09T01:13:06.300Z,100753.64
2023-05-09T01:16:17.072Z,100750.40
2023-05-09T01:19:12.834Z,100752.67
2023-05-09T01:21:53.669Z,100749.61
2023-05-09T01:25:47.004Z,100746.33
2023-05-09T01:29:04.311Z,100747.04
2023-05-09T01:31:57.771Z,100750.36
2023-05-09T01:34:30.987Z,100745.36
2023-05-09T01:37:06.154Z,100748.38
2023-05-09T01:39:53.573Z,100747.21
2023-05-09T01:42:25.461Z,100743.45
2023-05-09T01:44:55.009Z,100741.77
2023-05-09T01:47:36.535Z,100740.73
2023-05-09T01:50:41.920Z,100736.73
2023-05-09T01:53:43.487Z,100733.96
2023-05-09T01:56:15.988Z,100729.45
2023-05-09T01:59:08.496Z,100728.24
2023-05-09T02:01:47.323Z,100723.56
2023-05-09T02:04:59.779Z,100722.80
2023-05-09T02:08:10.527Z,100720.23
2023-05-09T02:11:16.837Z,100719.08
2023-05-09T02:14:07.555Z,100712.82
2023-05-09T02:17:10.753Z,100711.45
2023-05-09T02:19:53.322Z,100706.25
2023-05-09T02:22:27.489Z,100703.30
2023-05-09T02:26:01.790Z,100702.11
2023-05-09T02:28:52.506Z,100700.37
2023-05-09T02:31:53.360Z,100698.48
2023-05-09T02:35:16.793Z,100694.33
2023-05-09T02:38:04.873Z,100690.20
2023-05-09T02:41:16.616Z,100691.42
2023-05-09T02:43:47.367Z,100687.77
2023-05-09T02:46:20.942Z,100687.77
2023-05-09T02:49:26.695Z,100683.77
2023-05-09T02:52:12.020Z,100682.75
2023-05-09T02:55:08.297Z,100682.44
2023-05-09T02:58:13.620Z,100680.20
2023-05-09T03:01:32.536Z,100681.31
2023-05-09T03:04:05.658Z,100677.84
2023-05-09T03:07:07.300Z,100676.64
2023-05-09T03:10:19.714Z,100677.19
2023-05-09T03:12:50.140Z,100679.13
2023-05-09T03:15:34.622Z,100681.41
2023-05-09T03:18:33.411Z,100681.05
2023-05-09T03:21:02.037Z,100676.15
2023-05-09T03:23:57.892Z,100675.79
2023-05-09T03:27:00.309Z,100677.69
2023-05-09T03:30:01.558Z,100677.90
2023-05-09T03:33:25.641Z,100674.27
2023-05-09T03:36:24.199Z,100673.99
2023-05-09T03:38:52.898Z,100677.64
2023-05-09T03:41:42.107Z,100675.58
2023-05-09T03:44:29.776Z,100673.88
2023-05-09T03:47:15.966Z,100674.92
2023-05-09T03:50:19.307Z,100676.66
2023-05-09T03:52:47.880Z,100673.84
2023-05-09T03:55:28.242Z,100674.14
2023-05-09T03:58:06.406Z,100673.20
2023-05-09T04:00:57.332Z,100675.41
2023-05-09T04:03:39.202Z,100679.38
2023-05-09T04:06:22.826Z,100680.08
2023-05-09T04:09:07.407Z,100681.79
2023-05-09T04:11:38.599Z,100680.04
2023-05-09T04:14:44.809Z,100681.36
2023-05-09T04:17:29.048Z,100677.27
2023-05-09T04:20:26.000Z,100675.62
2023-05-09T04:22:57.390Z,100674.96
2023-05-09T04:25:33.752Z,100672.15
2023-05-09T04:28:05.382Z,100668.28
2023-05-09T04:31:06.780Z,100670.96
2023-05-09T04:33:59.196Z,100672.13
2023-05-09T04:36:46.712Z,100675.42
2023-05-09T04:39:43.061Z,100677.52
2023-05-09T04:42:14.604Z,100680.95
2023-05-09T04:44:43.135Z,100684.52
2023-05-09T04:47:11.549Z,100682.02
2023-05-09T04:49:40.591Z,100682.30
2023-05-09T04:52:22.359Z,100682.36
2023-05-09T04:55:11.164Z,100678.88
2023-05-09T04:57:42.653Z,100682.00
2023-05-09T05:00:14.196Z,100682.50
2023-05-09T05:02:49.400Z,100681.78
2023-05-09T05:05:41.753Z,100677.40
2023-05-09T05:08:16.357Z,100670.38
2023-05-09T05:11:19.934Z,100667.90
2023-05-09T05:14:17.889Z,100666.27
2023-05-09T05:17:02.357Z,100667.83
2023-05-09T05:20:17.621Z,100669.26
2023-05-09T05:23:19.533Z,100669.37
2023-05-09T05:25:51.363Z,100669.02
2023-05-09T05:28:34.975Z,100665.42
2023-05-09T05:31:08.838Z,100663.27
2023-05-09T05:34:04.495Z,100661.16
2023-05-09T05:36:52.371Z,100660.27
2023-05-09T05:39:52.115Z,100661.05
2023-05-09T05:42:26.533Z,100659.48
2023-05-09T05:44:57.528Z,100661.15
2023-05-09T05:47:31.398Z,100657.40
2023-05-09T05:50:16.018Z,100659.24
2023-05-09T05:53:06.662Z,100661.07
2023-05-09T05:55:34.957Z,100656.55
2023-05-09T05:58:09.833Z,100660.09
2023-05-09T06:01:05.881Z,100655.27
2023-05-09T06:04:21.257Z,100650.36
2023-05-09T06:07:01.937Z,100652.38
2023-05-09T06:09:45.744Z,100653.92
2023-05-09T06:12:17.258Z,100653.77
2023-05-09T06:14:58.031Z,100656.02
2023-05-09T06:17:28.827Z,100660.05
2023-05-09T06:20:00.352Z,100649.55
2023-05-09T06:22:29.851Z,100646.52
2023-05-09T06:24:58.058Z,100648.72
2023-05-09T06:27:26.656Z,100655.71
2023-05-09T06:30:25.846Z,100649.56
2023-05-09T06:33:27.036Z,100647.61
2023-05-09T06:35:55.804Z,100646.94
2023-05-09T06:38:24.862Z,100639.24
2023-05-09T06:40:56.680Z,100638.30
2023-05-09T06:43:49.920Z,100638.13
2023-05-09T06:46:19.084Z,100640.95
2023-05-09T06:48:56.666Z,100637.21
2023-05-09T06:51:33.890Z,100635.84
2023-05-09T06:54:17.679Z,100629.94
2023-05-09T06:56:46.063Z,100634.26
2023-05-09T06:59:16.683Z,100632.23
2023-05-09T07:01:45.601Z,100633.33
2023-05-09T07:04:25.645Z,100627.07
2023-05-09T07:07:06.330Z,100626.14
2023-05-09T07:09:35.024Z,100620.84
2023-05-09T07:12:23.720Z,100625.71
2023-05-09T07:14:52.138Z,100610.87
2023-05-09T07:17:25.886Z,100612.08
2023-05-09T07:20:05.196Z,100609.08
2023-05-09T07:22:41.516Z,100605.48
2023-05-09T07:25:13.618Z,100600.75
2023-05-09T07:27:42.066Z,100594.73
2023-05-09T07:30:18.571Z,100590.60
2023-05-09T07:32:46.974Z,100588.02
2023-05-09T07:35:16.199Z,100590.22
2023-05-09T07:37:52.909Z,100590.77
2023-05-09T07:40:21.109Z,100582.16
2023-05-09T07:43:05.819Z,100581.90
2023-05-09T07:45:38.094Z,100575.82
2023-05-09T07:48:09.750Z,100574.63
2023-05-09T07:50:41.547Z,100570.17
2023-05-09T07:53:10.179Z,100565.92
2023-05-09T07:55:41.658Z,100564.91
2023-05-09T07:58:10.661Z,100552.76
2023-05-09T08:00:39.116Z,100555.48
2023-05-09T08:03:08.087Z,100552.99
2023-05-09T08:05:36.873Z,100552.56
2023-05-09T08:08:08.169Z,100547.41
2023-05-09T08:10:37.181Z,100542.13
2023-05-09T08:13:35.250Z,100537.41
2023-05-09T08:16:46.151Z,100535.29
2023-05-09T08:19:43.827Z,100536.42
2023-05-09T08:22:23.251Z,100532.64
2023-05-09T08:24:51.435Z,100536.72
2023-05-09T08:28:02.510Z,100526.41
2023-05-09T08:30:40.832Z,100529.91
2023-05-09T08:33:09.101Z,100523.20
2023-05-09T08:35:39.820Z,100519.41
2023-05-09T08:38:08.902Z,100509.49
2023-05-09T08:41:22.966Z,100505.89
2023-05-09T08:43:51.614Z,100498.77
2023-05-09T08:46:28.236Z,100495.10
2023-05-09T08:49:24.602Z,100496.54
2023-05-09T08:51:53.587Z,100492.32
2023-05-09T08:54:23.610Z,100498.33
2023-05-09T08:57:02.756Z,100489.73
2023-05-09T08:59:53.087Z,100491.33
2023-05-09T09:02:22.036Z,100493.21
2023-05-09T09:04:58.041Z,100486.55
2023-05-09T09:07:31.323Z,100484.13
2023-05-09T09:10:10.930Z,100471.63
2023-05-09T09:12:41.239Z,100474.33
2023-05-09T09:15:17.889Z,100472.52
2023-05-09T09:17:51.101Z,100464.58
2023-05-09T09:20:22.185Z,100470.76
2023-05-09T09:22:52.641Z,100463.09
2023-05-09T09:25:23.960Z,100455.21
2023-05-09T09:28:00.992Z,100461.02
2023-05-09T09:30:43.343Z,100469.57
2023-05-09T09:33:23.297Z,100457.86
2023-05-09T09:36:00.792Z,100458.27
2023-05-09T09:38:40.997Z,100461.85
2023-05-09T09:41:11.617Z,100457.66
2023-05-09T09:43:46.605Z,100454.67
2023-05-09T09:46:45.280Z,100450.80
2023-05-09T09:49:15.691Z,100446.27
2023-05-09T09:51:44.760Z,100445.73
2023-05-09T09:54:42.832Z,100444.83
2023-05-09T09:57:11.682Z,100445.65
2023-05-09T09:59:39.941Z,100434.34
2023-05-09T10:02:27.064Z,100422.50
2023-05-09T10:04:55.836Z,100423.46
2023-05-09T10:07:24.381Z,100421.15
2023-05-09T10:10:06.208Z,100417.44
2023-05-09T10:12:58.755Z,100406.62
2023-05-09T10:15:53.648Z,100409.11
2023-05-09T10:18:32.722Z,100413.80
2023-05-09T10:21:15.592Z,100404.75
2023-05-09T10:24:06.779Z,100402.86
2023-05-09T10:26:48.820Z,100391.09
2023-05-09T10:29:24.237Z,100386.14
2023-05-09T10:32:06.934Z,100397.83
2023-05-09T10:34:59.707Z,100390.05
2023-05-09T10:38:00.829Z,100392.25
2023-05-09T10:40:40.564Z,100385.50
2023-05-09T10:43:32.046Z,100380.77
2023-05-09T10:46:01.924Z,100386.66
2023-05-09T10:48:33.699Z,100387.34
2023-05-09T10:51:16.585Z,100381.41
2023-05-09T10:53:50.184Z,100371.82
2023-05-09T10:56:27.707Z,100365.29
2023-05-09T10:59:02.430Z,100357.08
2023-05-09T11:02:07.190Z,100351.18
2023-05-09T11:04:44.899Z,100350.70
2023-05-09T11:07:43.761Z,100343.27
2023-05-09T11:10:19.098Z,100338.14
2023-05-09T11:13:31.381Z,100330.98
2023-05-09T11:16:11.901Z,100328.95
2023-05-09T11:19:06.877Z,100323.48
2023-05-09T11:21:44.348Z,100325.42
2023-05-09T11:24:28.561Z,100313.19
2023-05-09T11:27:40.541Z,100315.17
2023-05-09T11:31:19.011Z,100307.08
2023-05-09T11:34:29.543Z,100296.36
2023-05-09T11:37:24.072Z,100289.10
2023-05-09T11:40:06.993Z,100290.79
2023-05-09T11:42:44.781Z,100284.85
2023-05-09T11:45:18.028Z,100280.23
2023-05-09T11:47:59.131Z,100286.88
2023-05-09T11:50:27.678Z,100286.27
2023-05-09T11:53:10.077Z,100281.52
2023-05-09T11:55:38.460Z,100281.30
2023-05-09T11:58:08.273Z,100275.55
2023-05-09T12:00:37.800Z,100265.80
2023-05-09T12:03:29.381Z,100264.11
2023-05-09T12:05:58.177Z,100264.99
2023-05-09T12:08:28.256Z,100265.66
2023-05-09T12:11:08.504Z,100252.89
2023-05-09T12:13:47.689Z,100246.58
2023-05-09T12:16:18.014Z,100240.49
2023-05-09T12:18:51.786Z,100237.47
2023-05-09T12:21:21.854Z,100223.98
2023-05-09T12:23:59.482Z,100223.16
2023-05-09T12:26:30.828Z,100225.25
2023-05-09T12:29:09.047Z,100228.13
2023-05-09T12:31:37.552Z,100223.02
2023-05-09T12:34:15.152Z,100209.16
2023-05-09T12:36:53.795Z,100216.81
2023-05-09T12:39:42.481Z,100216.12
2023-05-09T12:42:14.417Z,100198.38
2023-05-09T12:44:50.072Z,100198.52
2023-05-09T12:47:18.858Z,100201.38
2023-05-09T12:49:51.018Z,100209.09
2023-05-09T12:52:26.049Z,100213.11
2023-05-09T12:54:55.289Z,100207.52
2023-05-09T12:57:33.122Z,100199.28
2023-05-09T13:00:06.870Z,100191.62
2023-05-09T13:02:38.899Z,100185.78
2023-05-09T13:05:24.670Z,100184.13
2023-05-09T13:08:14.881Z,100168.80
2023-05-09T13:10:49.138Z,100182.21
2023-05-09T13:13:28.009Z,100171.27
2023-05-09T13:15:59.551Z,100173.23
2023-05-09T13:18:30.350Z,100165.02
2023-05-09T13:20:59.128Z,100166.61
2023-05-09T13:23:30.301Z,100156.36
2023-05-09T13:25:59.135Z,100151.75
2023-05-09T13:28:30.689Z,100141.27
2023-05-09T13:31:08.618Z,100131.81
2023-05-09T13:33:42.820Z,100136.06
2023-05-09T13:36:32.717Z,100133.25
2023-05-09T13:39:03.558Z,100120.55
2023-05-09T13:41:35.289Z,100120.24
2023-05-09T13:44:04.783Z,100117.03
2023-05-09T13:46:33.178Z,100112.44
2023-05-09T13:49:14.273Z,100103.33
2023-05-09T13:51:44.553Z,100094.82
2023-05-09T13:54:23.673Z,100091.02
2023-05-09T13:56:54.653Z,100094.55
2023-05-09T13:59:23.006Z,100082.57
2023-05-09T14:01:57.673Z,100079.52
2023-05-09T14:04:32.693Z,100075.81
2023-05-09T14:07:01.674Z,100077.05
2023-05-09T14:09:31.158Z,100081.20
2023-05-09T14:12:01.783Z,100068.59
2023-05-09T14:14:32.466Z,100062.27
2023-05-09T14:17:01.657Z,100062.46
2023-05-09T14:19:39.222Z,100062.09
2023-05-09T14:22:10.045Z,100059.02
2023-05-09T14:24:38.348Z,100056.98
2023-05-09T14:27:12.382Z,100058.89
2023-05-09T14:29:51.321Z,100054.75
2023-05-09T14:32:28.814Z,100052.59
2023-05-09T14:34:57.475Z,100057.70
2023-05-09T14:37:25.837Z,100053.38
2023-05-09T14:40:23.281Z,100052.66
2023-05-09T14:42:51.857Z,100041.28
2023-05-09T14:45:26.058Z,100037.42
2023-05-09T14:48:04.113Z,100036.04
2023-05-09T14:50:35.351Z,100025.05
2023-05-09T14:53:03.894Z,100034.23
2023-05-09T14:56:01.883Z,100028.40
2023-05-09T14:58:32.274Z,100020.81
2023-05-09T15:01:04.558Z,100016.75
2023-05-09T15:03:33.300Z,100010.30
2023-05-09T15:06:05.520Z,100012.72
2023-05-09T15:08:35.820Z,100015.89
2023-05-09T15:11:08.066Z,100010.73
2023-05-09T15:13:39.810Z,100011.15
2023-05-09T15:16:22.346Z,100007.28
2023-05-09T15:19:11.443Z,99996.97
2023-05-09T15:22:00.452Z,99997.67
2023-05-09T15:24:29.854Z,99992.45
2023-05-09T15:27:01.258Z,99982.73
2023-05-09T15:29:29.890Z,99978.08
2023-05-09T15:32:01.354Z,99985.95
2023-05-09T15:34:30.060Z,99986.60
2023-05-09T15:37:06.757Z,99984.00
2023-05-09T15:39:45.830Z,99981.39
2023-05-09T15:42:17.774Z,99976.14
2023-05-09T15:44:55.170Z,99971.10
2023-05-09T15:47:26.912Z,99970.29
2023-05-09T15:49:56.083Z,99957.27
2023-05-09T15:52:43.175Z,99959.69
2023-05-09T15:55:41.608Z,99950.99
2023-05-09T15:58:23.682Z,99950.13
2023-05-09T16:00:52.328Z,99952.02
2023-05-09T16:03:30.079Z,99951.41
2023-05-09T16:06:17.932Z,99946.91
2023-05-09T16:08:58.677Z,99942.66
2023-05-09T16:11:27.247Z,99929.77
2023-05-09T16:13:55.958Z,99922.80
2023-05-09T16:16:25.504Z,99923.91
2023-05-09T16:19:08.877Z,99921.61
2023-05-09T16:21:38.009Z,99917.69
2023-05-09T16:24:06.924Z,99914.52
2023-05-09T16:26:41.483Z,99913.13
2023-05-09T16:29:23.641Z,99908.80
2023-05-09T16:31:54.472Z,99908.84
2023-05-09T16:34:49.847Z,99901.52
2023-05-09T16:37:38.642Z,99898.36
2023-05-09T16:40:07.969Z,99884.51
2023-05-09T16:42:45.400Z,99882.06
2023-05-09T16:45:13.724Z,99882.58
2023-05-09T16:47:42.023Z,99878.50
2023-05-09T16:50:13.215Z,99877.92
2023-05-09T16:52:50.827Z,99875.40
2023-05-09T16:55:34.198Z,99870.01
2023-05-09T16:58:08.319Z,99863.60
2023-05-09T17:00:42.773Z,99870.60
2023-05-09T17:03:11.375Z,99862.81
2023-05-09T17:05:40.115Z,99856.15
2023-05-09T17:08:15.803Z,99860.73
2023-05-09T17:10:47.157Z,99850.13
2023-05-09T17:13:15.751Z,99847.27
2023-05-09T17:15:44.994Z,99845.49
2023-05-09T17:18:17.027Z,99843.18
2023-05-09T17:20:48.401Z,99837.31
2023-05-09T17:23:25.477Z,99839.59
2023-05-09T17:25:54.470Z,99837.70
2023-05-09T17:28:23.304Z,99837.38
2023-05-09T17:31:03.848Z,99834.82
2023-05-09T17:33:43.694Z,99833.92
2023-05-09T17:36:15.041Z,99837.93
2023-05-09T17:38:43.740Z,99836.42
2023-05-09T17:41:14.784Z,99838.65
2023-05-09T17:43:43.103Z,99837.35
2023-05-09T17:46:11.354Z,99841.50
2023-05-09T17:48:39.650Z,99838.45
2023-05-09T17:51:07.860Z,99841.95
2023-05-09T17:53:36.170Z,99846.37
2023-05-09T17:56:10.527Z,99849.77
2023-05-09T17:58:42.445Z,99854.79
2023-05-09T18:01:31.928Z,99851.99
2023-05-09T18:04:04.011Z,99853.52
2023-05-09T18:06:52.308Z,99851.11
2023-05-09T18:09:41.226Z,99848.80
2023-05-09T18:12:17.769Z,99846.99
2023-05-09T18:15:01.442Z,99845.84
2023-05-09T18:17:31.078Z,99843.71
2023-05-09T18:20:03.225Z,99843.95
2023-05-09T18:22:51.885Z,99838.05
2023-05-09T18:25:20.902Z,99840.52
2023-05-09T18:27:51.788Z,99843.27
2023-05-09T18:30:23.571Z,99844.10
2023-05-09T18:33:00.433Z,99841.91
2023-05-09T18:35:31.765Z,99840.38
2023-05-09T18:38:05.343Z,99844.27
2023-05-09T18:40:37.439Z,99845.02
2023-05-09T18:43:37.398Z,99846.77
2023-05-09T18:46:18.096Z,99848.57
2023-05-09T18:48:53.393Z,99846.55
2023-05-09T18:51:45.251Z,99848.61
2023-05-09T18:54:14.264Z,99856.29
2023-05-09T18:56:43.231Z,99857.08
2023-05-09T18:59:20.618Z,99856.02
2023-05-09T19:02:02.631Z,99857.96
2023-05-09T19:04:36.597Z,99856.99
2023-05-09T19:07:16.544Z,99854.10
2023-05-09T19:09:55.527Z,99854.59
2023-05-09T19:12:51.259Z,99858.11
2023-05-09T19:15:51.562Z,99854.61
2023-05-09T19:18:48.990Z,99856.16
2023-05-09T19:21:49.639Z,99853.63
2023-05-09T19:24:27.309Z,99855.16
2023-05-09T19:27:39.362Z,99851.26
2023-05-09T19:30:18.136Z,99845.96
2023-05-09T19:32:52.771Z,99848.34
2023-05-09T19:35:24.520Z,99846.27
2023-05-09T19:37:56.378Z,99843.59
2023-05-09T19:40:39.167Z,99844.63
2023-05-09T19:43:10.257Z,99845.65
2023-05-09T19:45:44.607Z,99842.76
2023-05-09T19:48:52.351Z,99835.44
2023-05-09T19:51:28.438Z,99839.73
2023-05-09T19:54:23.016Z,99835.95
2023-05-09T19:57:12.639Z,99832.49
2023-05-09T19:59:41.099Z,99830.71
2023-05-09T20:02:12.730Z,99827.45
2023-05-09T20:04:50.259Z,99828.02
2023-05-09T20:07:20.871Z,99827.56
2023-05-09T20:10:13.181Z,99824.27
2023-05-09T20:12:47.802Z,99823.16
2023-05-09T20:15:16.384Z,99822.77
2023-05-09T20:17:56.839Z,99816.59
2023-05-09T20:20:59.080Z,99814.05
2023-05-09T20:23:33.522Z,99815.59
2023-05-09T20:26:05.264Z,99812.06
2023-05-09T20:28:38.275Z,99805.61
2023-05-09T20:31:06.699Z,99806.80
2023-05-09T20:33:55.979Z,99805.99
2023-05-09T20:36:35.703Z,99804.63
2023-05-09T20:39:24.922Z,99802.80
2023-05-09T20:41:58.964Z,99799.70
2023-05-09T20:44:33.857Z,99796.25
2023-05-09T20:47:02.734Z,99795.65
2023-05-09T20:49:40.436Z,99790.59
2023-05-09T20:52:11.393Z,99786.96
2023-05-09T20:54:59.540Z,99784.85
2023-05-09T20:57:58.663Z,99785.65
2023-05-09T21:00:49.030Z,99782.90
2023-05-09T21:03:56.955Z,99781.69
2023-05-09T21:06:25.659Z,99779.88
2023-05-09T21:09:14.990Z,99778.00
2023-05-09T21:11:48.891Z,99775.18
2023-05-09T21:14:46.976Z,99775.81
2023-05-09T21:17:15.609Z,99770.89
2023-05-09T21:19:51.762Z,99775.73
2023-05-09T21:22:20.326Z,99775.27
2023-05-09T21:25:20.597Z,99771.98
2023-05-09T21:27:49.391Z,99768.48
2023-05-09T21:30:18.007Z,99765.64
2023-05-09T21:33:14.913Z,99761.77
2023-05-09T21:35:43.574Z,99761.33
2023-05-09T21:38:21.758Z,99759.48
2023-05-09T21:40:51.592Z,99763.70
2023-05-09T21:43:20.277Z,99757.92
2023-05-09T21:45:57.621Z,99761.91
2023-05-09T21:48:34.778Z,99759.62
2023-05-09T21:51:33.652Z,99759.94
2023-05-09T21:54:15.854Z,99761.48
2023-05-09T21:56:49.151Z,99755.36
2023-05-09T21:59:29.342Z,99755.04
2023-05-09T22:02:00.559Z,99754.20
2023-05-09T22:04:46.942Z,99752.23
2023-05-09T22:07:22.761Z,99748.86
2023-05-09T22:10:55.351Z,99751.23
2023-05-09T22:13:27.294Z,99748.77
2023-05-09T22:16:01.921Z,99746.66
2023-05-09T22:19:06.992Z,99744.86
2023-05-09T22:22:04.593Z,99747.20
2023-05-09T22:24:42.997Z,99744.36
2023-05-09T22:27:25.393Z,99737.64
2023-05-09T22:30:05.269Z,99734.96
2023-05-09T22:33:03.095Z,99734.48
2023-05-09T22:35:45.039Z,99734.31
2023-05-09T22:38:17.079Z,99732.05
2023-05-09T22:41:03.966Z,99730.42
2023-05-09T22:43:41.822Z,99725.39
2023-05-09T22:46:36.104Z,99724.33
2023-05-09T22:49:30.911Z,99721.52
2023-05-09T22:52:17.594Z,99715.94
2023-05-09T22:55:25.703Z,99705.61
2023-05-09T22:58:31.430Z,99708.46
2023-05-09T23:01:29.809Z,99707.45
2023-05-09T23:04:27.858Z,99707.11
2023-05-09T23:06:58.977Z,99710.75
2023-05-09T23:10:05.097Z,99705.70
2023-05-09T23:12:43.851Z,99706.09
2023-05-09T23:15:30.589Z,99705.15
2023-05-09T23:18:15.388Z,99703.91
2023-05-09T23:21:03.158Z,99701.33
2023-05-09T23:23:34.630Z,99704.87
2023-05-09T23:26:31.867Z,99701.98
2023-05-09T23:29:23.323Z,99700.38
2023-05-09T23:31:57.663Z,99703.52
2023-05-09T23:34:26.397Z,99701.44
2023-05-09T23:37:24.230Z,99698.00
2023-05-09T23:40:21.682Z,99697.65
2023-05-09T23:43:30.867Z,99690.33
2023-05-09T23:46:02.561Z,99687.00
2023-05-09T23:49:18.504Z,99688.57
2023-05-09T23:52:01.596Z,99689.17
2023-05-09T23:54:35.290Z,99684.86
2023-05-09T23:57:42.521Z,99680.64
